createdAt,value
2023-02-16T00:05:44.649Z,29.73
2023-02-16T00:15:50.612Z,29.43
2023-02-16T00:25:52.781Z,27.47
2023-02-16T00:35:55.964Z,24.80
2023-02-16T00:46:00.688Z,24.23
2023-02-16T00:56:04.744Z,28.97
2023-02-16T01:06:29.720Z,28.30
2023-02-16T01:16:42.826Z,28.90
2023-02-16T01:26:49.955Z,28.07
2023-02-16T01:36:53.203Z,26.07
2023-02-16T01:47:21.925Z,29.03
2023-02-16T01:57:39.243Z,27.50
2023-02-16T02:08:12.061Z,27.40
2023-02-16T02:18:17.206Z,26.23
2023-02-16T02:29:01.075Z,18.70
2023-02-16T02:39:10.403Z,28.60
2023-02-16T02:49:17.192Z,27.10
2023-02-16T02:59:40.180Z,26.50
2023-02-16T03:09:44.763Z,29.30
2023-02-16T03:20:10.952Z,28.73
2023-02-16T03:30:16.381Z,27.83
2023-02-16T03:40:31.966Z,30.57
2023-02-16T03:50:40.022Z,28.80
2023-02-16T04:00:45.093Z,29.57
2023-02-16T04:10:47.419Z,31.00
2023-02-16T04:20:52.533Z,30.47
2023-02-16T04:31:03.520Z,29.30
2023-02-16T04:41:09.548Z,28.33
2023-02-16T04:51:20.876Z,30.53
2023-02-16T05:01:24.729Z,28.73
2023-02-16T05:11:46.044Z,29.97
2023-02-16T05:21:53.160Z,29.23
2023-02-16T05:31:57.969Z,28.73
2023-02-16T05:42:02.048Z,31.10
2023-02-16T05:52:08.049Z,28.97
2023-02-16T06:02:14.105Z,30.37
2023-02-16T06:12:18.365Z,30.60
2023-02-16T06:22:22.095Z,30.60
2023-02-16T06:32:29.454Z,32.17
2023-02-16T06:42:37.319Z,30.40
2023-02-16T06:52:39.585Z,29.13
2023-02-16T07:02:43.600Z,30.10
2023-02-16T07:12:46.470Z,30.73
2023-02-16T07:22:50.907Z,29.07
2023-02-16T07:32:58.394Z,41.15
2023-02-16T07:43:07.970Z,27.20
2023-02-16T07:53:13.112Z,29.07
2023-02-16T08:03:20.167Z,29.43
2023-02-16T08:13:24.705Z,27.93
2023-02-16T08:23:26.930Z,26.63
2023-02-16T08:33:34.862Z,25.33
2023-02-16T08:43:37.039Z,24.10
2023-02-16T08:53:46.562Z,29.37
2023-02-16T09:03:50.416Z,28.13
2023-02-16T09:13:52.586Z,29.93
2023-02-16T09:23:56.603Z,26.37
2023-02-16T09:34:08.494Z,26.80
2023-02-16T09:44:33.966Z,27.30
2023-02-16T09:54:57.851Z,26.43
2023-02-16T10:05:31.208Z,26.37
2023-02-16T10:15:35.037Z,28.47
2023-02-16T10:25:57.776Z,26.77
2023-02-16T10:36:03.158Z,25.17
2023-02-16T10:46:08.662Z,25.57
2023-02-16T10:56:34.991Z,26.80
2023-02-16T11:06:40.142Z,23.57
2023-02-16T11:16:42.283Z,26.17
2023-02-16T11:26:44.723Z,26.10
2023-02-16T11:36:47.531Z,20.20
2023-02-16T11:46:50.377Z,23.37
2023-02-16T11:57:15.781Z,23.93
2023-02-16T12:07:52.066Z,21.93
2023-02-16T12:18:34.875Z,22.07
2023-02-16T12:29:01.612Z,21.63
2023-02-16T12:39:37.128Z,21.93
2023-02-16T12:49:56.342Z,21.30
2023-02-16T13:00:01.079Z,23.30
2023-02-16T13:10:17.641Z,22.93
2023-02-16T13:20:24.902Z,22.47
2023-02-16T13:30:48.760Z,22.20
2023-02-16T13:41:28.630Z,24.07
2023-02-16T13:51:42.305Z,22.10
2023-02-16T14:01:54.413Z,22.90
2023-02-16T14:11:57.698Z,22.70
2023-02-16T14:22:12.595Z,26.53
2023-02-16T14:32:26.847Z,27.23
2023-02-16T14:42:35.663Z,29.17
2023-02-16T14:52:51.207Z,25.23
2023-02-16T15:02:58.211Z,26.17
2023-02-16T15:13:00.324Z,25.60
2023-02-16T15:23:21.764Z,26.43
2023-02-16T15:33:39.676Z,23.70
2023-02-16T15:43:50.388Z,23.80
2023-02-16T15:54:00.939Z,24.10
2023-02-16T16:04:25.577Z,24.70
2023-02-16T16:14:28.630Z,24.50
2023-02-16T16:24:35.730Z,25.67
2023-02-16T16:34:39.987Z,25.03
2023-02-16T16:45:13.872Z,27.30
2023-02-16T16:55:44.244Z,25.00
2023-02-16T17:05:51.067Z,25.63
2023-02-16T17:16:07.493Z,25.77
2023-02-16T17:26:12.298Z,26.17
2023-02-16T17:36:16.019Z,22.80
2023-02-16T17:46:19.465Z,23.87
2023-02-16T17:56:23.141Z,23.77
2023-02-16T18:06:32.112Z,26.07
2023-02-16T18:16:36.687Z,26.13
2023-02-16T18:26:40.107Z,22.87
2023-02-16T18:36:46.564Z,23.93
2023-02-16T18:46:52.473Z,25.30
2023-02-16T18:56:55.134Z,25.20
2023-02-16T19:07:00.817Z,26.97
2023-02-16T19:17:06.121Z,24.17
2023-02-16T19:27:10.487Z,24.97
2023-02-16T19:37:15.368Z,25.33
2023-02-16T19:47:20.349Z,24.93
2023-02-16T19:57:25.950Z,25.13
2023-02-16T20:07:31.081Z,24.80
2023-02-16T20:17:33.590Z,26.00
2023-02-16T20:27:36.435Z,26.73
2023-02-16T20:37:40.361Z,27.57
2023-02-16T20:47:48.182Z,29.00
2023-02-16T20:57:52.521Z,30.97
2023-02-16T21:07:59.051Z,26.77
2023-02-16T21:18:01.222Z,26.00
2023-02-16T21:28:05.749Z,28.67
2023-02-16T21:38:13.756Z,29.17
2023-02-16T21:48:34.473Z,27.13
2023-02-16T21:58:36.655Z,29.83
2023-02-16T22:08:42.488Z,30.97
2023-02-16T22:18:47.830Z,28.43
2023-02-16T22:28:50.702Z,29.07
2023-02-16T22:38:53.905Z,29.60
2023-02-16T22:48:58.710Z,27.77
2023-02-16T22:59:03.496Z,29.60
2023-02-16T23:09:09.234Z,31.40
2023-02-16T23:19:18.180Z,31.20
2023-02-16T23:29:22.605Z,30.70
2023-02-16T23:39:28.746Z,31.13
2023-02-16T23:49:34.790Z,30.13
2023-02-16T23:59:37.122Z,32.13
